createdAt,value
2018-05-10T00:01:21.815Z,13.14
2018-05-10T00:03:49.350Z,13.06
2018-05-10T00:06:17.287Z,12.97
2018-05-10T00:08:44.877Z,12.86
2018-05-10T00:11:13.030Z,12.80
2018-05-10T00:13:40.530Z,12.77
2018-05-10T00:16:08.068Z,12.69
2018-05-10T00:18:35.582Z,12.69
2018-05-10T00:21:03.246Z,12.70
2018-05-10T00:23:30.743Z,12.67
2018-05-10T00:25:58.270Z,12.66
2018-05-10T00:28:25.842Z,12.67
2018-05-10T00:30:53.359Z,12.71
2018-05-10T00:33:20.937Z,12.74
2018-05-10T00:35:48.483Z,12.84
2018-05-10T00:38:16.798Z,12.93
2018-05-10T00:40:44.322Z,12.93
2018-05-10T00:43:11.863Z,12.92
2018-05-10T00:45:39.455Z,12.72
2018-05-10T00:48:06.994Z,12.47
2018-05-10T00:50:34.574Z,12.37
2018-05-10T00:53:02.159Z,12.42
2018-05-10T00:55:29.706Z,12.48
2018-05-10T00:57:57.250Z,12.56
2018-05-10T01:00:24.796Z,12.62
2018-05-10T01:02:52.490Z,12.67
2018-05-10T01:05:20.006Z,12.69
2018-05-10T01:07:47.517Z,12.69
2018-05-10T01:10:15.079Z,12.68
2018-05-10T01:12:42.610Z,12.58
2018-05-10T01:15:10.133Z,12.45
2018-05-10T01:17:37.701Z,12.35
2018-05-10T01:20:05.237Z,12.30
2018-05-10T01:22:32.774Z,12.17
2018-05-10T01:25:00.301Z,12.28
2018-05-10T01:27:27.854Z,12.30
2018-05-10T01:29:55.453Z,12.28
2018-05-10T01:32:22.983Z,12.30
2018-05-10T01:35:02.322Z,12.32
2018-05-10T01:37:29.880Z,12.34
2018-05-10T01:39:57.413Z,12.34
2018-05-10T01:42:24.979Z,12.35
2018-05-10T01:44:52.514Z,12.41
2018-05-10T01:47:20.034Z,12.49
2018-05-10T01:49:47.594Z,12.54
2018-05-10T01:52:15.122Z,12.51
2018-05-10T01:54:42.732Z,12.50
2018-05-10T01:57:10.303Z,12.48
2018-05-10T01:59:37.865Z,12.39
2018-05-10T02:02:05.459Z,12.24
2018-05-10T02:04:33.051Z,12.07
2018-05-10T02:07:00.614Z,12.06
2018-05-10T02:09:28.252Z,12.08
2018-05-10T02:11:56.117Z,12.15
2018-05-10T02:14:23.642Z,12.19
2018-05-10T02:16:51.180Z,12.22
2018-05-10T02:19:18.730Z,12.25
2018-05-10T02:21:46.290Z,12.23
2018-05-10T02:24:13.865Z,12.23
2018-05-10T02:26:41.563Z,12.25
2018-05-10T02:29:09.095Z,12.28
2018-05-10T02:31:36.650Z,12.31
2018-05-10T02:34:04.233Z,12.36
2018-05-10T02:36:31.766Z,12.40
2018-05-10T02:38:59.281Z,12.43
2018-05-10T02:41:26.889Z,12.38
2018-05-10T02:43:54.453Z,12.33
2018-05-10T02:46:22.014Z,12.29
2018-05-10T02:48:49.548Z,12.25
2018-05-10T02:51:17.073Z,12.22
2018-05-10T02:53:44.621Z,12.20
2018-05-10T02:56:12.192Z,12.16
2018-05-10T02:58:39.770Z,12.12
2018-05-10T03:01:07.419Z,12.03
2018-05-10T03:03:34.958Z,11.95
2018-05-10T03:06:02.562Z,11.87
2018-05-10T03:08:30.111Z,11.80
2018-05-10T03:10:57.682Z,11.74
2018-05-10T03:13:25.275Z,11.68
2018-05-10T03:15:52.802Z,11.65
2018-05-10T03:21:00.470Z,11.53
2018-05-10T03:23:28.031Z,11.49
2018-05-10T03:25:55.574Z,11.44
2018-05-10T03:28:23.130Z,11.39
2018-05-10T03:30:50.653Z,11.34
2018-05-10T03:33:18.348Z,11.31
2018-05-10T03:35:45.839Z,11.15
2018-05-10T03:38:13.414Z,11.25
2018-05-10T03:40:40.994Z,11.22
2018-05-10T03:43:08.590Z,11.17
2018-05-10T03:45:36.105Z,11.24
2018-05-10T03:48:03.693Z,11.37
2018-05-10T03:50:31.243Z,11.48
2018-05-10T03:52:58.786Z,11.49
2018-05-10T03:55:26.326Z,11.50
2018-05-10T03:57:53.933Z,11.48
2018-05-10T04:00:21.450Z,11.51
2018-05-10T04:06:15.674Z,11.87
2018-05-10T04:08:54.982Z,12.41
2018-05-10T04:11:23.178Z,12.56
2018-05-10T04:13:50.709Z,12.57
2018-05-10T04:16:18.247Z,12.83
2018-05-10T04:18:45.835Z,13.42
2018-05-10T04:21:14.257Z,13.55
2018-05-10T04:23:41.761Z,14.29
2018-05-10T04:26:09.327Z,14.95
2018-05-10T04:28:36.857Z,15.25
2018-05-10T04:31:04.425Z,14.74
2018-05-10T04:33:31.946Z,14.26
2018-05-10T04:35:59.532Z,14.19
2018-05-10T04:38:27.033Z,15.32
2018-05-10T04:40:54.627Z,16.32
2018-05-10T04:43:22.153Z,16.67
2018-05-10T04:45:49.713Z,16.27
2018-05-10T04:48:17.257Z,15.82
2018-05-10T04:50:44.842Z,15.64
2018-05-10T04:53:12.360Z,16.05
2018-05-10T04:55:39.933Z,17.57
2018-05-10T04:58:07.485Z,18.27
2018-05-10T05:00:35.035Z,16.57
2018-05-10T05:03:02.604Z,17.45
2018-05-10T05:05:30.119Z,18.77
2018-05-10T05:07:57.669Z,19.74
2018-05-10T05:10:25.182Z,20.22
2018-05-10T05:12:53.681Z,20.30
2018-05-10T05:15:21.197Z,21.09
2018-05-10T05:17:48.748Z,20.95
2018-05-10T05:20:16.254Z,20.46
2018-05-10T05:22:43.794Z,21.29
2018-05-10T05:25:11.350Z,21.45
2018-05-10T05:27:38.957Z,22.36
2018-05-10T05:30:06.461Z,21.44
2018-05-10T05:32:34.041Z,22.59
2018-05-10T05:35:01.565Z,23.05
2018-05-10T05:37:29.116Z,23.43
2018-05-10T05:39:56.646Z,23.40
2018-05-10T05:42:24.169Z,22.94
2018-05-10T05:44:51.707Z,23.62
2018-05-10T05:47:19.322Z,24.34
2018-05-10T05:49:46.843Z,23.87
2018-05-10T05:52:14.463Z,24.38
2018-05-10T05:54:42.001Z,24.57
2018-05-10T05:57:09.529Z,24.84
2018-05-10T05:59:37.054Z,25.21
2018-05-10T06:02:04.562Z,25.72
2018-05-10T06:04:32.127Z,25.41
2018-05-10T06:06:59.658Z,26.06
2018-05-10T06:09:27.180Z,26.82
2018-05-10T06:11:54.740Z,26.72
2018-05-10T06:14:22.249Z,27.89
2018-05-10T06:16:49.755Z,28.75
2018-05-10T06:19:17.315Z,29.43
2018-05-10T06:21:44.806Z,29.64
2018-05-10T06:24:12.370Z,29.17
2018-05-10T06:26:39.904Z,29.90
2018-05-10T06:29:07.442Z,29.63
2018-05-10T06:31:34.997Z,29.90
2018-05-10T06:34:02.594Z,29.46
2018-05-10T06:36:30.108Z,29.24
2018-05-10T06:38:57.655Z,29.01
2018-05-10T06:41:25.158Z,29.87
2018-05-10T06:43:52.699Z,29.78
2018-05-10T06:46:20.195Z,29.94
2018-05-10T06:48:47.923Z,29.85
2018-05-10T06:51:15.446Z,29.42
2018-05-10T06:53:42.950Z,29.68
2018-05-10T06:56:10.484Z,29.86
2018-05-10T06:58:37.964Z,30.88
2018-05-10T07:01:05.476Z,30.83
2018-05-10T07:03:32.994Z,30.79
2018-05-10T07:06:00.545Z,30.08
2018-05-10T07:08:28.057Z,31.10
2018-05-10T07:10:55.664Z,32.22
2018-05-10T07:13:23.200Z,31.32
2018-05-10T07:15:50.764Z,32.14
2018-05-10T07:18:18.287Z,32.24
2018-05-10T07:20:45.841Z,34.15
2018-05-10T07:23:13.358Z,34.75
2018-05-10T07:25:40.886Z,34.63
2018-05-10T07:28:08.459Z,34.98
2018-05-10T07:30:35.980Z,34.85
2018-05-10T07:33:03.534Z,35.31
2018-05-10T07:35:31.103Z,34.24
2018-05-10T07:37:58.633Z,32.70
2018-05-10T07:40:26.171Z,32.90
2018-05-10T07:42:53.710Z,33.22
2018-05-10T07:45:22.198Z,31.58
2018-05-10T07:47:50.051Z,32.50
2018-05-10T07:50:17.595Z,33.19
2018-05-10T07:52:45.190Z,33.37
2018-05-10T07:55:12.723Z,34.25
2018-05-10T07:57:40.243Z,34.30
2018-05-10T08:00:07.827Z,34.23
2018-05-10T08:02:35.454Z,34.33
2018-05-10T08:05:02.942Z,33.91
2018-05-10T08:07:30.526Z,32.72
2018-05-10T08:09:58.018Z,32.63
2018-05-10T08:12:25.549Z,33.30
2018-05-10T08:14:53.055Z,33.34
2018-05-10T08:17:20.723Z,33.68
2018-05-10T08:19:48.178Z,34.21
2018-05-10T08:22:15.717Z,35.41
2018-05-10T08:24:43.240Z,34.20
2018-05-10T08:27:10.801Z,32.44
2018-05-10T08:29:38.507Z,33.45
2018-05-10T08:32:06.046Z,31.17
2018-05-10T08:34:33.601Z,31.61
2018-05-10T08:37:01.159Z,32.30
2018-05-10T08:39:28.718Z,33.33
2018-05-10T08:41:56.273Z,34.73
2018-05-10T08:44:23.818Z,34.62
2018-05-10T08:46:51.350Z,34.40
2018-05-10T08:49:18.926Z,34.43
2018-05-10T08:51:46.548Z,33.62
2018-05-10T08:54:14.003Z,33.50
2018-05-10T08:56:41.533Z,33.77
2018-05-10T08:59:09.090Z,34.37
2018-05-10T09:01:36.595Z,33.85
2018-05-10T09:04:04.124Z,34.32
2018-05-10T09:06:31.628Z,33.63
2018-05-10T09:08:59.176Z,34.47
2018-05-10T09:11:26.728Z,34.89
2018-05-10T09:13:54.273Z,35.80
2018-05-10T09:16:21.790Z,33.35
2018-05-10T09:18:49.330Z,32.67
2018-05-10T09:21:16.882Z,32.44
2018-05-10T09:23:44.422Z,32.89
2018-05-10T09:26:11.954Z,32.72
2018-05-10T09:28:39.472Z,33.41
2018-05-10T09:31:06.991Z,34.22
2018-05-10T09:33:34.931Z,35.18
2018-05-10T09:36:02.498Z,32.75
2018-05-10T09:38:30.142Z,31.99
2018-05-10T09:40:58.670Z,32.07
2018-05-10T09:43:26.210Z,32.25
2018-05-10T09:45:53.738Z,33.74
2018-05-10T09:48:21.342Z,33.11
2018-05-10T09:50:48.882Z,33.97
2018-05-10T09:53:16.415Z,33.60
2018-05-10T09:55:43.969Z,34.85
2018-05-10T09:58:11.484Z,33.94
2018-05-10T10:00:39.053Z,33.43
2018-05-10T10:03:06.606Z,31.47
2018-05-10T10:05:34.502Z,28.60
2018-05-10T10:08:02.003Z,31.24
2018-05-10T10:10:29.569Z,32.88
2018-05-10T10:12:57.087Z,33.81
2018-05-10T10:15:24.616Z,32.53
2018-05-10T10:17:52.142Z,29.16
2018-05-10T10:20:19.679Z,27.56
2018-05-10T10:22:47.242Z,28.27
2018-05-10T10:25:14.848Z,28.33
2018-05-10T10:27:42.355Z,29.33
2018-05-10T10:30:09.883Z,30.52
2018-05-10T10:32:37.425Z,28.70
2018-05-10T10:35:05.270Z,28.42
2018-05-10T10:37:32.817Z,27.20
2018-05-10T10:40:00.370Z,26.25
2018-05-10T10:42:27.967Z,26.07
2018-05-10T10:44:55.500Z,25.62
2018-05-10T10:47:23.042Z,25.37
2018-05-10T10:49:50.555Z,24.98
2018-05-10T10:52:18.111Z,24.18
2018-05-10T10:54:45.682Z,24.17
2018-05-10T10:57:13.311Z,24.00
2018-05-10T10:59:40.915Z,23.42
2018-05-10T11:02:08.453Z,22.81
2018-05-10T11:04:36.161Z,22.83
2018-05-10T11:07:03.698Z,22.93
2018-05-10T11:09:31.455Z,23.33
2018-05-10T11:11:59.255Z,23.19
2018-05-10T11:14:27.038Z,22.60
2018-05-10T11:16:54.586Z,22.45
2018-05-10T11:19:22.127Z,22.99
2018-05-10T11:21:49.674Z,23.52
2018-05-10T11:24:17.229Z,24.07
2018-05-10T11:26:44.790Z,22.46
2018-05-10T11:29:12.315Z,24.88
2018-05-10T11:31:39.810Z,25.32
2018-05-10T11:34:07.318Z,25.19
2018-05-10T11:36:34.806Z,24.03
2018-05-10T11:39:02.376Z,23.73
2018-05-10T11:41:29.835Z,23.75
2018-05-10T11:43:57.356Z,23.59
2018-05-10T11:46:24.854Z,23.72
2018-05-10T11:48:52.375Z,23.62
2018-05-10T11:51:19.869Z,25.16
2018-05-10T11:53:47.389Z,24.53
2018-05-10T11:56:14.937Z,24.64
2018-05-10T11:58:42.460Z,24.93
2018-05-10T12:01:09.957Z,25.35
2018-05-10T12:03:37.468Z,25.68
2018-05-10T12:06:04.984Z,25.70
2018-05-10T12:08:32.503Z,25.71
2018-05-10T12:10:59.989Z,25.49
2018-05-10T12:13:27.493Z,25.83
2018-05-10T12:15:55.070Z,25.67
2018-05-10T12:18:22.534Z,25.47
2018-05-10T12:20:50.032Z,25.02
2018-05-10T12:23:17.531Z,24.79
2018-05-10T12:25:45.048Z,24.96
2018-05-10T12:28:12.554Z,24.76
2018-05-10T12:30:40.076Z,24.60
2018-05-10T12:33:07.566Z,24.76
2018-05-10T12:35:35.075Z,24.83
2018-05-10T12:38:02.576Z,25.08
2018-05-10T12:40:30.086Z,25.03
2018-05-10T12:42:57.581Z,25.08
2018-05-10T12:45:25.966Z,25.51
2018-05-10T12:47:53.519Z,25.03
2018-05-10T12:50:22.300Z,25.00
2018-05-10T12:52:49.888Z,25.07
2018-05-10T12:55:17.462Z,25.00
2018-05-10T12:57:45.033Z,24.69
2018-05-10T13:00:12.599Z,24.52
2018-05-10T13:02:40.160Z,24.33
2018-05-10T13:05:07.742Z,23.94
2018-05-10T13:07:35.340Z,23.61
2018-05-10T13:10:02.932Z,23.41
2018-05-10T13:12:30.481Z,22.90
2018-05-10T13:14:58.051Z,22.68
2018-05-10T13:17:25.672Z,22.42
2018-05-10T13:19:53.208Z,22.36
2018-05-10T13:22:21.401Z,22.10
2018-05-10T13:24:48.967Z,22.09
2018-05-10T13:27:16.643Z,22.22
2018-05-10T13:29:44.116Z,22.45
2018-05-10T13:32:11.717Z,22.85
2018-05-10T13:34:39.241Z,22.94
2018-05-10T13:37:06.818Z,23.02
2018-05-10T13:39:34.345Z,22.92
2018-05-10T13:42:01.956Z,22.89
2018-05-10T13:44:29.504Z,22.75
2018-05-10T13:46:57.146Z,22.56
2018-05-10T13:49:25.097Z,22.58
2018-05-10T13:51:52.694Z,22.61
2018-05-10T13:54:20.214Z,22.66
2018-05-10T13:56:47.742Z,22.75
2018-05-10T13:59:15.264Z,22.73
2018-05-10T14:01:42.787Z,22.61
2018-05-10T14:04:10.333Z,22.56
2018-05-10T14:06:37.923Z,22.51
2018-05-10T14:09:06.371Z,22.38
2018-05-10T14:11:33.893Z,22.28
2018-05-10T14:14:01.407Z,22.32
2018-05-10T14:16:28.945Z,22.38
2018-05-10T14:18:57.504Z,22.36
2018-05-10T14:21:25.034Z,22.17
2018-05-10T14:23:52.555Z,22.20
2018-05-10T14:26:20.062Z,22.25
2018-05-10T14:28:47.607Z,22.07
2018-05-10T14:31:15.115Z,22.11
2018-05-10T14:33:42.686Z,22.10
2018-05-10T14:36:10.342Z,22.05
2018-05-10T14:38:38.295Z,21.92
2018-05-10T14:41:06.104Z,21.82
2018-05-10T14:43:33.636Z,21.86
2018-05-10T14:46:01.177Z,21.81
2018-05-10T14:48:29.006Z,21.85
2018-05-10T14:50:56.564Z,21.80
2018-05-10T14:53:24.083Z,21.84
2018-05-10T14:55:51.605Z,21.76
2018-05-10T14:58:19.223Z,21.89
2018-05-10T15:00:46.767Z,21.78
2018-05-10T15:03:14.358Z,21.86
2018-05-10T15:05:41.889Z,21.74
2018-05-10T15:08:09.440Z,21.82
2018-05-10T15:10:36.957Z,21.77
2018-05-10T15:13:04.491Z,21.53
2018-05-10T15:15:32.144Z,21.54
2018-05-10T15:18:02.239Z,21.53
2018-05-10T15:20:30.342Z,21.47
2018-05-10T15:22:57.861Z,21.46
2018-05-10T15:25:25.404Z,21.65
2018-05-10T15:27:52.940Z,21.71
2018-05-10T15:30:21.630Z,21.91
2018-05-10T15:32:49.140Z,21.88
2018-05-10T15:35:16.684Z,21.89
2018-05-10T15:37:44.250Z,21.96
2018-05-10T15:40:11.840Z,22.00
2018-05-10T15:42:39.374Z,21.96
2018-05-10T15:45:06.911Z,22.00
2018-05-10T15:47:34.418Z,21.76
2018-05-10T15:50:01.957Z,21.86
2018-05-10T15:52:29.447Z,21.79
2018-05-10T15:54:56.979Z,21.83
2018-05-10T15:57:24.508Z,21.81
2018-05-10T15:59:52.110Z,21.70
2018-05-10T16:02:19.635Z,21.81
2018-05-10T16:04:47.186Z,21.79
2018-05-10T16:07:14.719Z,21.85
2018-05-10T16:09:42.279Z,21.77
2018-05-10T16:12:09.861Z,21.96
2018-05-10T16:14:37.477Z,22.03
2018-05-10T16:17:05.008Z,21.88
2018-05-10T16:19:32.600Z,21.96
2018-05-10T16:22:00.309Z,21.94
2018-05-10T16:24:27.930Z,21.65
2018-05-10T16:26:55.563Z,21.54
2018-05-10T16:29:23.171Z,21.27
2018-05-10T16:31:50.765Z,21.26
2018-05-10T16:34:18.407Z,21.37
2018-05-10T16:36:46.050Z,21.41
2018-05-10T16:39:13.584Z,21.35
2018-05-10T16:41:43.311Z,21.35
2018-05-10T16:44:10.881Z,21.41
2018-05-10T16:46:38.529Z,21.45
2018-05-10T16:49:06.783Z,21.67
2018-05-10T16:51:34.340Z,21.79
2018-05-10T16:54:01.859Z,21.60
2018-05-10T16:56:29.474Z,21.40
2018-05-10T16:58:56.994Z,21.32
2018-05-10T17:01:24.544Z,21.31
2018-05-10T17:03:52.071Z,21.14
2018-05-10T17:06:19.599Z,21.13
2018-05-10T17:08:47.157Z,21.02
2018-05-10T17:11:14.653Z,20.87
2018-05-10T17:13:42.218Z,20.82
2018-05-10T17:16:09.743Z,20.78
2018-05-10T17:18:37.369Z,20.62
2018-05-10T17:21:04.838Z,20.54
2018-05-10T17:23:32.357Z,20.48
2018-05-10T17:25:59.855Z,20.42
2018-05-10T17:28:27.367Z,20.38
2018-05-10T17:30:54.959Z,20.35
2018-05-10T17:33:22.411Z,20.28
2018-05-10T17:35:49.911Z,20.17
2018-05-10T17:38:17.477Z,20.14
2018-05-10T17:40:44.972Z,20.11
2018-05-10T17:43:12.488Z,19.92
2018-05-10T17:45:39.980Z,19.88
2018-05-10T17:48:07.535Z,19.74
2018-05-10T17:50:35.017Z,19.61
2018-05-10T17:53:02.531Z,19.40
2018-05-10T17:55:30.017Z,19.35
2018-05-10T17:57:57.522Z,19.35
2018-05-10T18:00:25.034Z,19.34
2018-05-10T18:02:52.527Z,19.34
2018-05-10T18:05:20.050Z,19.24
2018-05-10T18:07:47.549Z,19.14
2018-05-10T18:10:15.066Z,18.97
2018-05-10T18:12:42.559Z,18.86
2018-05-10T18:15:10.307Z,18.79
2018-05-10T18:17:37.802Z,18.67
2018-05-10T18:20:05.316Z,18.61
2018-05-10T18:22:32.812Z,18.59
2018-05-10T18:25:00.386Z,18.54
2018-05-10T18:27:27.898Z,18.56
2018-05-10T18:29:55.426Z,18.31
2018-05-10T18:32:22.934Z,18.03
2018-05-10T18:34:50.458Z,17.69
2018-05-10T18:37:17.960Z,17.40
2018-05-10T18:39:45.487Z,17.28
2018-05-10T18:42:12.991Z,17.14
2018-05-10T18:44:40.514Z,17.03
2018-05-10T18:47:08.029Z,16.98
2018-05-10T18:49:35.641Z,16.94
2018-05-10T18:52:03.182Z,16.91
2018-05-10T18:54:31.451Z,16.86
2018-05-10T18:56:59.237Z,16.82
2018-05-10T18:59:26.906Z,16.78
2018-05-10T19:01:54.783Z,16.80
2018-05-10T19:04:22.495Z,16.80
2018-05-10T19:06:50.354Z,16.74
2018-05-10T19:09:18.067Z,16.49
2018-05-10T19:11:45.850Z,16.30
2018-05-10T19:14:13.522Z,16.16
2018-05-10T19:16:41.073Z,16.03
2018-05-10T19:19:08.606Z,15.88
2018-05-10T19:21:36.198Z,15.76
2018-05-10T19:24:03.711Z,15.60
2018-05-10T19:26:31.556Z,15.48
2018-05-10T19:28:59.364Z,15.39
2018-05-10T19:31:26.965Z,15.32
2018-05-10T19:33:54.471Z,15.22
2018-05-10T19:36:22.021Z,15.14
2018-05-10T19:39:05.374Z,15.07
2018-05-10T19:41:33.790Z,15.10
2018-05-10T19:44:03.853Z,15.11
2018-05-10T19:46:31.447Z,15.05
2018-05-10T19:48:58.973Z,14.99
2018-05-10T19:51:30.382Z,14.97
2018-05-10T19:53:58.915Z,14.84
2018-05-10T19:56:30.911Z,14.81
2018-05-10T19:59:07.663Z,14.79
2018-05-10T20:01:35.650Z,14.71
2018-05-10T20:04:03.170Z,14.65
2018-05-10T20:06:36.622Z,14.57
2018-05-10T20:09:04.177Z,14.48
2018-05-10T20:11:36.056Z,14.43
2018-05-10T20:14:03.964Z,14.47
2018-05-10T20:16:31.475Z,14.34
2018-05-10T20:18:59.060Z,14.19
2018-05-10T20:21:26.571Z,14.28
2018-05-10T20:23:54.139Z,14.31
2018-05-10T20:26:21.650Z,14.23
2018-05-10T20:28:49.217Z,14.31
2018-05-10T20:33:43.622Z,14.25
2018-05-10T20:36:11.174Z,14.21
2018-05-10T20:38:38.746Z,14.18
2018-05-10T20:41:06.298Z,14.16
2018-05-10T20:43:33.855Z,14.14
2018-05-10T20:46:02.419Z,14.14
2018-05-10T20:48:29.959Z,14.14
2018-05-10T20:50:57.552Z,14.17
2018-05-10T20:53:25.127Z,14.01
2018-05-10T20:55:52.718Z,13.95
2018-05-10T20:58:20.995Z,13.99
2018-05-10T21:00:49.187Z,13.95
2018-05-10T21:03:16.759Z,13.97
2018-05-10T21:05:44.332Z,13.96
2018-05-10T21:08:11.914Z,13.89
2018-05-10T21:10:39.535Z,13.92
2018-05-10T21:13:07.209Z,13.89
2018-05-10T21:15:34.801Z,13.87
2018-05-10T21:18:02.376Z,13.87
2018-05-10T21:20:29.962Z,13.85
2018-05-10T21:22:57.552Z,13.88
2018-05-10T21:25:25.146Z,13.89
2018-05-10T21:27:52.717Z,13.85
2018-05-10T21:30:20.278Z,13.86
2018-05-10T21:32:47.836Z,13.85
2018-05-10T21:35:16.312Z,13.87
2018-05-10T21:37:44.404Z,13.95
2018-05-10T21:40:11.939Z,13.99
2018-05-10T21:42:39.491Z,13.98
2018-05-10T21:45:07.121Z,14.02
2018-05-10T21:47:34.659Z,14.05
2018-05-10T21:50:05.902Z,13.96
2018-05-10T21:52:33.405Z,13.96
2018-05-10T21:55:01.043Z,13.98
2018-05-10T21:57:28.527Z,14.00
2018-05-10T21:59:56.060Z,13.99
2018-05-10T22:02:23.675Z,13.90
2018-05-10T22:04:51.228Z,13.97
2018-05-10T22:07:18.825Z,14.09
2018-05-10T22:09:46.370Z,14.01
2018-05-10T22:12:13.995Z,13.96
2018-05-10T22:14:41.496Z,13.92
2018-05-10T22:17:09.034Z,13.86
2018-05-10T22:19:36.600Z,13.88
2018-05-10T22:22:04.146Z,13.85
2018-05-10T22:24:31.685Z,13.88
2018-05-10T22:26:59.222Z,13.89
2018-05-10T22:29:26.753Z,13.89
2018-05-10T22:31:54.339Z,13.93
2018-05-10T22:34:21.910Z,13.92
2018-05-10T22:36:49.441Z,13.87
2018-05-10T22:39:17.002Z,13.88
2018-05-10T22:41:44.634Z,13.93
2018-05-10T22:44:12.201Z,13.91
2018-05-10T22:46:39.760Z,13.92
2018-05-10T22:49:07.273Z,13.84
2018-05-10T22:51:34.822Z,13.87
2018-05-10T22:54:02.383Z,13.79
2018-05-10T22:56:29.939Z,13.79
2018-05-10T22:58:57.569Z,13.78
2018-05-10T23:01:25.114Z,13.79
2018-05-10T23:03:52.680Z,13.75
2018-05-10T23:06:20.220Z,13.73
2018-05-10T23:08:47.791Z,13.77
2018-05-10T23:11:15.322Z,13.81
2018-05-10T23:13:42.881Z,13.73
2018-05-10T23:16:10.409Z,13.67
2018-05-10T23:18:37.959Z,13.75
2018-05-10T23:21:05.547Z,13.79
2018-05-10T23:23:33.121Z,13.78
2018-05-10T23:26:00.636Z,13.78
2018-05-10T23:28:29.159Z,13.81
2018-05-10T23:30:56.696Z,13.78
2018-05-10T23:33:24.268Z,13.77
2018-05-10T23:35:51.789Z,13.79
2018-05-10T23:38:19.351Z,13.79
2018-05-10T23:40:46.908Z,13.80
2018-05-10T23:43:14.476Z,13.83
2018-05-10T23:45:42.408Z,13.83
2018-05-10T23:48:09.937Z,13.73
2018-05-10T23:50:37.536Z,13.70
2018-05-10T23:53:05.069Z,13.70
2018-05-10T23:55:32.617Z,13.74
2018-05-10T23:58:00.186Z,13.82
